sensor_id;sensor_type;location;lat;lon;timestamp;pressure;altitude;pressure_sealevel;temperature;humidity
62201;BME280;48197;42.732;27.192;2023-03-23T00:01:53;99776.78;;;7.00;100.00
62201;BME280;48197;42.732;27.192;2023-03-23T00:04:21;99780.69;;;6.99;100.00
62201;BME280;48197;42.732;27.192;2023-03-23T00:06:49;99780.28;;;6.97;100.00
62201;BME280;48197;42.732;27.192;2023-03-23T00:09:15;99774.44;;;7.02;100.00
62201;BME280;48197;42.732;27.192;2023-03-23T00:11:43;99771.72;;;7.06;100.00
62201;BME280;48197;42.732;27.192;2023-03-23T00:14:10;99768.59;;;7.07;100.00
62201;BME280;48197;42.732;27.192;2023-03-23T00:16:40;99770.19;;;7.08;100.00
62201;BME280;48197;42.732;27.192;2023-03-23T00:19:11;99772.53;;;7.06;100.00
62201;BME280;48197;42.732;27.192;2023-03-23T00:21:43;99763.09;;;7.07;100.00
62201;BME280;48197;42.732;27.192;2023-03-23T00:24:15;99769.00;;;7.09;100.00
62201;BME280;48197;42.732;27.192;2023-03-23T00:26:45;99762.31;;;7.10;100.00
62201;BME280;48197;42.732;27.192;2023-03-23T00:29:15;99762.31;;;7.10;100.00
62201;BME280;48197;42.732;27.192;2023-03-23T00:31:42;99757.22;;;7.09;100.00
62201;BME280;48197;42.732;27.192;2023-03-23T00:34:13;99756.44;;;7.08;100.00
62201;BME280;48197;42.732;27.192;2023-03-23T00:36:48;99756.84;;;7.10;100.00
62201;BME280;48197;42.732;27.192;2023-03-23T00:39:15;99756.09;;;7.13;100.00
62201;BME280;48197;42.732;27.192;2023-03-23T00:41:44;99759.28;;;7.19;100.00
62201;BME280;48197;42.732;27.192;2023-03-23T00:44:11;99754.56;;;7.23;100.00
62201;BME280;48197;42.732;27.192;2023-03-23T00:46:43;99755.81;;;7.26;100.00
62201;BME280;48197;42.732;27.192;2023-03-23T00:49:11;99749.91;;;7.27;100.00
62201;BME280;48197;42.732;27.192;2023-03-23T00:51:39;99753.47;;;7.28;100.00
62201;BME280;48197;42.732;27.192;2023-03-23T00:54:06;99753.84;;;7.26;100.00
62201;BME280;48197;42.732;27.192;2023-03-23T00:56:32;99748.34;;;7.26;100.00
62201;BME280;48197;42.732;27.192;2023-03-23T00:58:59;99753.06;;;7.26;100.00
62201;BME280;48197;42.732;27.192;2023-03-23T01:01:25;99745.22;;;7.28;100.00
62201;BME280;48197;42.732;27.192;2023-03-23T01:03:52;99748.78;;;7.32;100.00
62201;BME280;48197;42.732;27.192;2023-03-23T01:06:27;99747.59;;;7.33;100.00
62201;BME280;48197;42.732;27.192;2023-03-23T01:08:57;99745.22;;;7.31;100.00
62201;BME280;48197;42.732;27.192;2023-03-23T01:11:24;99745.63;;;7.30;100.00
62201;BME280;48197;42.732;27.192;2023-03-23T01:13:51;99746.41;;;7.30;100.00
62201;BME280;48197;42.732;27.192;2023-03-23T01:16:18;99739.72;;;7.28;100.00
62201;BME280;48197;42.732;27.192;2023-03-23T01:18:45;99745.22;;;7.31;100.00
62201;BME280;48197;42.732;27.192;2023-03-23T01:21:13;99744.06;;;7.32;100.00
62201;BME280;48197;42.732;27.192;2023-03-23T01:23:42;99737.75;;;7.28;100.00
62201;BME280;48197;42.732;27.192;2023-03-23T01:26:26;99738.84;;;7.20;100.00
62201;BME280;48197;42.732;27.192;2023-03-23T01:28:53;99737.28;;;7.19;100.00
62201;BME280;48197;42.732;27.192;2023-03-23T01:31:21;99739.22;;;7.19;100.00
62201;BME280;48197;42.732;27.192;2023-03-23T01:33:48;99734.50;;;7.15;100.00
62201;BME280;48197;42.732;27.192;2023-03-23T01:36:18;99732.91;;;7.14;100.00
62201;BME280;48197;42.732;27.192;2023-03-23T01:38:45;99736.47;;;7.15;100.00
62201;BME280;48197;42.732;27.192;2023-03-23T01:41:13;99736.06;;;7.13;100.00
62201;BME280;48197;42.732;27.192;2023-03-23T01:46:22;99735.28;;;7.16;100.00
62201;BME280;48197;42.732;27.192;2023-03-23T01:48:48;99734.91;;;7.18;100.00
62201;BME280;48197;42.732;27.192;2023-03-23T01:51:17;99739.22;;;7.15;100.00
62201;BME280;48197;42.732;27.192;2023-03-23T01:53:49;99732.50;;;7.12;100.00
62201;BME280;48197;42.732;27.192;2023-03-23T01:56:17;99736.44;;;7.11;100.00
62201;BME280;48197;42.732;27.192;2023-03-23T01:58:46;99734.47;;;7.08;100.00
62201;BME280;48197;42.732;27.192;2023-03-23T02:01:13;99740.75;;;7.09;100.00
62201;BME280;48197;42.732;27.192;2023-03-23T02:03:41;99737.59;;;7.07;100.00
62201;BME280;48197;42.732;27.192;2023-03-23T02:06:09;99738.31;;;7.04;100.00
62201;BME280;48197;42.732;27.192;2023-03-23T02:08:36;99732.81;;;7.00;100.00
62201;BME280;48197;42.732;27.192;2023-03-23T02:11:12;99742.63;;;7.01;100.00
62201;BME280;48197;42.732;27.192;2023-03-23T02:13:39;99735.56;;;7.00;100.00
62201;BME280;48197;42.732;27.192;2023-03-23T02:16:25;99738.31;;;7.04;100.00
62201;BME280;48197;42.732;27.192;2023-03-23T02:26:45;99739.97;;;7.12;100.00
62201;BME280;48197;42.732;27.192;2023-03-23T02:31:47;99747.47;;;7.15;100.00
62201;BME280;48197;42.732;27.192;2023-03-23T02:34:20;99750.19;;;7.11;100.00
62201;BME280;48197;42.732;27.192;2023-03-23T02:36:56;99752.94;;;7.11;100.00
62201;BME280;48197;42.732;27.192;2023-03-23T02:39:37;99749.00;;;7.12;100.00
62201;BME280;48197;42.732;27.192;2023-03-23T02:42:12;99748.63;;;7.14;100.00
62201;BME280;48197;42.732;27.192;2023-03-23T02:44:40;99751.38;;;7.14;100.00
62201;BME280;48197;42.732;27.192;2023-03-23T02:47:11;99750.22;;;7.15;100.00
62201;BME280;48197;42.732;27.192;2023-03-23T02:49:39;99754.50;;;7.12;100.00
62201;BME280;48197;42.732;27.192;2023-03-23T02:52:11;99766.28;;;7.13;100.00
62201;BME280;48197;42.732;27.192;2023-03-23T02:54:41;99757.25;;;7.12;100.00
62201;BME280;48197;42.732;27.192;2023-03-23T02:57:08;99761.59;;;7.13;100.00
62201;BME280;48197;42.732;27.192;2023-03-23T02:59:36;99758.47;;;7.15;100.00
62201;BME280;48197;42.732;27.192;2023-03-23T03:05:01;99747.41;;;7.08;100.00
62201;BME280;48197;42.732;27.192;2023-03-23T03:07:33;99765.13;;;7.14;100.00
62201;BME280;48197;42.732;27.192;2023-03-23T03:10:02;99753.72;;;7.12;100.00
62201;BME280;48197;42.732;27.192;2023-03-23T03:12:41;99763.09;;;7.07;100.00
62201;BME280;48197;42.732;27.192;2023-03-23T03:15:12;99762.31;;;7.07;100.00
62201;BME280;48197;42.732;27.192;2023-03-23T03:17:50;99767.44;;;7.08;100.00
62201;BME280;48197;42.732;27.192;2023-03-23T03:20:19;99766.22;;;7.06;100.00
62201;BME280;48197;42.732;27.192;2023-03-23T03:22:48;99773.69;;;7.05;100.00
62201;BME280;48197;42.732;27.192;2023-03-23T03:25:15;99775.28;;;7.06;100.00
62201;BME280;48197;42.732;27.192;2023-03-23T03:27:43;99775.28;;;7.06;100.00
62201;BME280;48197;42.732;27.192;2023-03-23T03:30:11;99776.84;;;7.07;100.00
62201;BME280;48197;42.732;27.192;2023-03-23T03:32:43;99767.03;;;7.06;100.00
62201;BME280;48197;42.732;27.192;2023-03-23T03:35:12;99775.66;;;7.05;100.00
62201;BME280;48197;42.732;27.192;2023-03-23T03:37:39;99770.94;;;7.05;100.00
62201;BME280;48197;42.732;27.192;2023-03-23T03:40:07;99774.88;;;7.04;100.00
62201;BME280;48197;42.732;27.192;2023-03-23T03:42:41;99775.22;;;7.03;100.00
62201;BME280;48197;42.732;27.192;2023-03-23T03:45:08;99774.44;;;7.02;100.00
62201;BME280;48197;42.732;27.192;2023-03-23T03:47:36;99777.94;;;6.99;100.00
62201;BME280;48197;42.732;27.192;2023-03-23T03:50:03;99769.69;;;6.99;100.00
62201;BME280;48197;42.732;27.192;2023-03-23T03:52:29;99776.81;;;7.04;100.00
62201;BME280;48197;42.732;27.192;2023-03-23T03:54:56;99768.97;;;7.02;100.00
62201;BME280;48197;42.732;27.192;2023-03-23T03:57:23;99770.13;;;7.01;100.00
62201;BME280;48197;42.732;27.192;2023-03-23T03:59:50;99777.16;;;6.99;100.00
62201;BME280;48197;42.732;27.192;2023-03-23T04:02:18;99779.13;;;6.98;100.00
62201;BME280;48197;42.732;27.192;2023-03-23T04:04:46;99778.31;;;6.98;100.00
62201;BME280;48197;42.732;27.192;2023-03-23T04:07:14;99778.31;;;6.98;100.00
62201;BME280;48197;42.732;27.192;2023-03-23T04:09:42;99777.13;;;6.95;100.00
62201;BME280;48197;42.732;27.192;2023-03-23T04:12:09;99776.69;;;6.93;100.00
62201;BME280;48197;42.732;27.192;2023-03-23T04:14:36;99782.19;;;6.93;100.00
62201;BME280;48197;42.732;27.192;2023-03-23T04:17:02;99780.25;;;6.93;100.00
62201;BME280;48197;42.732;27.192;2023-03-23T04:19:29;99785.75;;;6.93;100.00
62201;BME280;48197;42.732;27.192;2023-03-23T04:21:59;99780.22;;;6.90;100.00
62201;BME280;48197;42.732;27.192;2023-03-23T04:24:25;99785.72;;;6.90;100.00
62201;BME280;48197;42.732;27.192;2023-03-23T04:26:54;99787.69;;;6.89;100.00
62201;BME280;48197;42.732;27.192;2023-03-23T04:29:20;99792.78;;;6.91;100.00
62201;BME280;48197;42.732;27.192;2023-03-23T04:31:46;99793.59;;;6.95;100.00
62201;BME280;48197;42.732;27.192;2023-03-23T04:34:13;99794.06;;;7.01;100.00
62201;BME280;48197;42.732;27.192;2023-03-23T04:36:40;99798.81;;;7.07;100.00
62201;BME280;48197;42.732;27.192;2023-03-23T04:39:07;99786.31;;;7.13;100.00
62201;BME280;48197;42.732;27.192;2023-03-23T04:41:36;99796.59;;;7.20;100.00
62201;BME280;48197;42.732;27.192;2023-03-23T04:44:03;99795.81;;;7.23;100.00
62201;BME280;48197;42.732;27.192;2023-03-23T04:46:31;99804.06;;;7.23;100.00
62201;BME280;48197;42.732;27.192;2023-03-23T04:49:01;99804.47;;;7.22;100.00
62201;BME280;48197;42.732;27.192;2023-03-23T04:51:28;99806.03;;;7.23;100.00
62201;BME280;48197;42.732;27.192;2023-03-23T04:53:55;99815.47;;;7.22;100.00
62201;BME280;48197;42.732;27.192;2023-03-23T04:56:22;99812.72;;;7.22;100.00
62201;BME280;48197;42.732;27.192;2023-03-23T04:58:49;99817.00;;;7.19;100.00
62201;BME280;48197;42.732;27.192;2023-03-23T05:01:15;99817.44;;;7.21;100.00
62201;BME280;48197;42.732;27.192;2023-03-23T05:03:44;99817.03;;;7.23;100.00
62201;BME280;48197;42.732;27.192;2023-03-23T05:06:10;99821.41;;;7.31;100.00
62201;BME280;48197;42.732;27.192;2023-03-23T05:08:37;99827.69;;;7.28;100.00
62201;BME280;48197;42.732;27.192;2023-03-23T05:11:08;99824.13;;;7.27;100.00
62201;BME280;48197;42.732;27.192;2023-03-23T05:13:35;99829.63;;;7.24;100.00
62201;BME280;48197;42.732;27.192;2023-03-23T05:16:05;99837.03;;;7.20;100.00
62201;BME280;48197;42.732;27.192;2023-03-23T05:18:31;99840.94;;;7.19;100.00
62201;BME280;48197;42.732;27.192;2023-03-23T05:21:02;99844.09;;;7.21;100.00
62201;BME280;48197;42.732;27.192;2023-03-23T05:23:29;99843.38;;;7.24;100.00
62201;BME280;48197;42.732;27.192;2023-03-23T05:26:00;99840.22;;;7.25;100.00
62201;BME280;48197;42.732;27.192;2023-03-23T05:28:28;99843.00;;;7.29;100.00
62201;BME280;48197;42.732;27.192;2023-03-23T05:30:56;99849.75;;;7.35;100.00
62201;BME280;48197;42.732;27.192;2023-03-23T05:33:23;99850.09;;;7.33;100.00
62201;BME280;48197;42.732;27.192;2023-03-23T05:35:50;99838.69;;;7.31;100.00
62201;BME280;48197;42.732;27.192;2023-03-23T05:38:16;99851.28;;;7.32;100.00
62201;BME280;48197;42.732;27.192;2023-03-23T05:40:44;99845.81;;;7.36;100.00
62201;BME280;48197;42.732;27.192;2023-03-23T05:43:11;99856.81;;;7.36;100.00
62201;BME280;48197;42.732;27.192;2023-03-23T05:45:38;99857.22;;;7.38;100.00
62201;BME280;48197;42.732;27.192;2023-03-23T05:48:05;99860.78;;;7.42;100.00
62201;BME280;48197;42.732;27.192;2023-03-23T05:50:32;99867.50;;;7.45;100.00
62201;BME280;48197;42.732;27.192;2023-03-23T05:52:59;99874.63;;;7.49;100.00
62201;BME280;48197;42.732;27.192;2023-03-23T05:55:25;99866.41;;;7.56;100.00
62201;BME280;48197;42.732;27.192;2023-03-23T05:57:53;99870.41;;;7.63;100.00
62201;BME280;48197;42.732;27.192;2023-03-23T06:00:19;99864.94;;;7.66;100.00
62201;BME280;48197;42.732;27.192;2023-03-23T06:02:49;99866.19;;;7.76;100.00
62201;BME280;48197;42.732;27.192;2023-03-23T06:05:17;99867.81;;;7.84;100.00
62201;BME280;48197;42.732;27.192;2023-03-23T06:07:43;99868.63;;;7.88;100.00
62201;BME280;48197;42.732;27.192;2023-03-23T06:10:11;99870.59;;;7.88;100.00
62201;BME280;48197;42.732;27.192;2023-03-23T06:12:38;99864.69;;;7.89;100.00
62201;BME280;48197;42.732;27.192;2023-03-23T06:15:05;99869.88;;;7.98;100.00
62201;BME280;48197;42.732;27.192;2023-03-23T06:17:33;99861.28;;;8.07;100.00
62201;BME280;48197;42.732;27.192;2023-03-23T06:19:59;99866.78;;;8.10;100.00
62201;BME280;48197;42.732;27.192;2023-03-23T06:22:26;99868.41;;;8.18;100.00
62201;BME280;48197;42.732;27.192;2023-03-23T06:24:53;99868.84;;;8.24;100.00
62201;BME280;48197;42.732;27.192;2023-03-23T06:27:19;99873.22;;;8.29;100.00
62201;BME280;48197;42.732;27.192;2023-03-23T06:29:46;99879.16;;;8.38;100.00
62201;BME280;48197;42.732;27.192;2023-03-23T06:32:13;99879.50;;;8.29;100.00
62201;BME280;48197;42.732;27.192;2023-03-23T06:34:40;99882.22;;;8.22;100.00
62201;BME280;48197;42.732;27.192;2023-03-23T06:37:09;99882.59;;;8.21;100.00
62201;BME280;48197;42.732;27.192;2023-03-23T06:39:36;99886.50;;;8.16;100.00
62201;BME280;48197;42.732;27.192;2023-03-23T06:42:04;99883.72;;;8.12;100.00
62201;BME280;48197;42.732;27.192;2023-03-23T06:44:35;99885.31;;;8.17;100.00
62201;BME280;48197;42.732;27.192;2023-03-23T06:47:01;99892.78;;;8.13;100.00
62201;BME280;48197;42.732;27.192;2023-03-23T06:49:27;99897.84;;;8.07;100.00
62201;BME280;48197;42.732;27.192;2023-03-23T06:51:54;99905.66;;;8.02;100.00
62201;BME280;48197;42.732;27.192;2023-03-23T06:54:21;99895.78;;;7.93;100.00
62201;BME280;48197;42.732;27.192;2023-03-23T06:56:47;99897.72;;;7.86;100.00
62201;BME280;48197;42.732;27.192;2023-03-23T06:59:14;99896.94;;;7.89;100.00
62201;BME280;48197;42.732;27.192;2023-03-23T07:01:40;99901.69;;;7.95;100.00
62201;BME280;48197;42.732;27.192;2023-03-23T07:04:07;99899.44;;;8.08;100.00
62201;BME280;48197;42.732;27.192;2023-03-23T07:06:34;99907.00;;;8.22;100.00
62201;BME280;48197;42.732;27.192;2023-03-23T07:09:00;99909.31;;;8.13;100.00
62201;BME280;48197;42.732;27.192;2023-03-23T07:11:26;99909.25;;;8.06;100.00
62201;BME280;48197;42.732;27.192;2023-03-23T07:13:53;99908.53;;;8.16;100.00
62201;BME280;48197;42.732;27.192;2023-03-23T07:19:12;99911.75;;;8.29;100.00
62201;BME280;48197;42.732;27.192;2023-03-23T07:21:39;99910.97;;;8.28;100.00
62201;BME280;48197;42.732;27.192;2023-03-23T07:24:09;99921.34;;;8.46;100.00
62201;BME280;48197;42.732;27.192;2023-03-23T07:26:37;99910.06;;;8.76;100.00
62201;BME280;48197;42.732;27.192;2023-03-23T07:29:05;99916.50;;;9.16;100.00
62201;BME280;48197;42.732;27.192;2023-03-23T07:31:32;99920.13;;;9.56;100.00
62201;BME280;48197;42.732;27.192;2023-03-23T07:33:58;99920.53;;;9.90;100.00
62201;BME280;48197;42.732;27.192;2023-03-23T07:36:25;99920.91;;;9.96;100.00
62201;BME280;48197;42.732;27.192;2023-03-23T07:38:52;99916.16;;;10.21;100.00
62201;BME280;48197;42.732;27.192;2023-03-23T07:41:23;99914.16;;;10.51;100.00
62201;BME280;48197;42.732;27.192;2023-03-23T07:43:50;99919.31;;;10.34;100.00
62201;BME280;48197;42.732;27.192;2023-03-23T07:46:17;99916.16;;;10.21;100.00
62201;BME280;48197;42.732;27.192;2023-03-23T07:48:44;99923.25;;;10.40;100.00
62201;BME280;48197;42.732;27.192;2023-03-23T07:51:10;99930.38;;;10.41;100.00
62201;BME280;48197;42.732;27.192;2023-03-23T07:53:37;99924.41;;;10.43;100.00
62201;BME280;48197;42.732;27.192;2023-03-23T07:56:04;99938.63;;;10.49;100.00
62201;BME280;48197;42.732;27.192;2023-03-23T07:58:31;99942.16;;;10.53;100.00
62201;BME280;48197;42.732;27.192;2023-03-23T08:00:57;99943.38;;;10.45;100.00
62201;BME280;48197;42.732;27.192;2023-03-23T08:03:24;99939.78;;;10.55;100.00
62201;BME280;48197;42.732;27.192;2023-03-23T08:05:50;99941.63;;;10.90;100.00
62201;BME280;48197;42.732;27.192;2023-03-23T08:08:16;99943.56;;;11.04;100.00
62201;BME280;48197;42.732;27.192;2023-03-23T08:10:42;99945.59;;;10.93;100.00
62201;BME280;48197;42.732;27.192;2023-03-23T08:13:09;99938.75;;;11.15;100.00
62201;BME280;48197;42.732;27.192;2023-03-23T08:15:35;99944.09;;;11.51;100.00
62201;BME280;48197;42.732;27.192;2023-03-23T08:18:03;99944.09;;;11.55;100.00
62201;BME280;48197;42.732;27.192;2023-03-23T08:20:31;99948.53;;;11.34;100.00
62201;BME280;48197;42.732;27.192;2023-03-23T08:22:58;99947.59;;;10.81;100.00
62201;BME280;48197;42.732;27.192;2023-03-23T08:25:28;99949.25;;;10.61;100.00
62201;BME280;48197;42.732;27.192;2023-03-23T08:27:58;99958.34;;;10.61;100.00
62201;BME280;48197;42.732;27.192;2023-03-23T08:30:25;99957.53;;;10.65;100.00
62201;BME280;48197;42.732;27.192;2023-03-23T08:32:55;99949.19;;;10.86;100.00
62201;BME280;48197;42.732;27.192;2023-03-23T08:35:22;99950.72;;;10.98;100.00
62201;BME280;48197;42.732;27.192;2023-03-23T08:37:49;99958.47;;;11.28;100.00
62201;BME280;48197;42.732;27.192;2023-03-23T08:40:21;99957.19;;;11.43;100.00
62201;BME280;48197;42.732;27.192;2023-03-23T08:42:48;99959.53;;;11.52;100.00
62201;BME280;48197;42.732;27.192;2023-03-23T08:45:17;99955.34;;;11.19;100.00
62201;BME280;48197;42.732;27.192;2023-03-23T08:47:44;99967.38;;;10.73;100.00
62201;BME280;48197;42.732;27.192;2023-03-23T08:50:13;99969.03;;;10.52;100.00
62201;BME280;48197;42.732;27.192;2023-03-23T08:52:39;99962.72;;;10.48;100.00
62201;BME280;48197;42.732;27.192;2023-03-23T08:55:07;99965.06;;;10.60;100.00
62201;BME280;48197;42.732;27.192;2023-03-23T08:57:35;99956.34;;;10.66;100.00
62201;BME280;48197;42.732;27.192;2023-03-23T09:00:05;99967.47;;;10.33;100.00
62201;BME280;48197;42.732;27.192;2023-03-23T09:02:49;99973.78;;;10.05;100.00
62201;BME280;48197;42.732;27.192;2023-03-23T09:05:16;99965.88;;;10.04;100.00
62201;BME280;48197;42.732;27.192;2023-03-23T09:07:44;99971.78;;;9.98;100.00
62201;BME280;48197;42.732;27.192;2023-03-23T09:10:12;99976.13;;;9.99;100.00
62201;BME280;48197;42.732;27.192;2023-03-23T09:12:39;99979.69;;;10.11;100.00
62201;BME280;48197;42.732;27.192;2023-03-23T09:15:08;99973.78;;;10.12;100.00
62201;BME280;48197;42.732;27.192;2023-03-23T09:17:36;99978.50;;;9.97;100.00
62201;BME280;48197;42.732;27.192;2023-03-23T09:20:03;99976.13;;;10.07;100.00
62201;BME280;48197;42.732;27.192;2023-03-23T09:22:35;99971.41;;;10.32;100.00
62201;BME280;48197;42.732;27.192;2023-03-23T09:25:00;99967.81;;;10.60;100.00
62201;BME280;48197;42.732;27.192;2023-03-23T09:27:26;99964.06;;;11.17;100.00
62201;BME280;48197;42.732;27.192;2023-03-23T09:29:53;99962.69;;;11.51;100.00
62201;BME280;48197;42.732;27.192;2023-03-23T09:32:21;99974.84;;;11.68;100.00
62201;BME280;48197;42.732;27.192;2023-03-23T09:34:47;99970.88;;;11.69;100.00
62201;BME280;48197;42.732;27.192;2023-03-23T10:08:55;99970.00;;;11.12;100.00
62201;BME280;48197;42.732;27.192;2023-03-23T10:12:03;99968.75;;;11.24;100.00
62201;BME280;48197;42.732;27.192;2023-03-23T10:14:36;99969.25;;;11.04;100.00
62201;BME280;48197;42.732;27.192;2023-03-23T10:17:13;99968.41;;;11.18;100.00
62201;BME280;48197;42.732;27.192;2023-03-23T10:19:49;99967.19;;;11.27;100.00
62201;BME280;48197;42.732;27.192;2023-03-23T10:22:21;99973.94;;;11.18;100.00
62201;BME280;48197;42.732;27.192;2023-03-23T10:25:33;99977.00;;;11.35;100.00
62201;BME280;48197;42.732;27.192;2023-03-23T10:27:50;99977.75;;;11.42;100.00
62201;BME280;48197;42.732;27.192;2023-03-23T10:32:56;99976.69;;;11.85;100.00
62201;BME280;48197;42.732;27.192;2023-03-23T10:35:31;99968.31;;;11.99;100.00
62201;BME280;48197;42.732;27.192;2023-03-23T10:38:06;99974.84;;;12.20;100.00
62201;BME280;48197;42.732;27.192;2023-03-23T10:40:38;99979.53;;;12.30;100.00
62201;BME280;48197;42.732;27.192;2023-03-23T10:43:08;99975.13;;;12.36;100.00
62201;BME280;48197;42.732;27.192;2023-03-23T10:45:35;99969.59;;;12.33;100.00
62201;BME280;48197;42.732;27.192;2023-03-23T10:50:29;99968.75;;;12.39;100.00
62201;BME280;48197;42.732;27.192;2023-03-23T10:52:57;99969.75;;;12.18;100.00
62201;BME280;48197;42.732;27.192;2023-03-23T10:55:25;99963.34;;;11.69;100.00
62201;BME280;48197;42.732;27.192;2023-03-23T10:58:10;99964.56;;;11.64;100.00
62201;BME280;48197;42.732;27.192;2023-03-23T11:00:43;99962.91;;;11.78;100.00
62201;BME280;48197;42.732;27.192;2023-03-23T11:05:47;99958.31;;;12.13;100.00
62201;BME280;48197;42.732;27.192;2023-03-23T11:08:23;99954.78;;;12.09;100.00
62201;BME280;48197;42.732;27.192;2023-03-23T11:10:51;99951.13;;;12.19;100.00
62201;BME280;48197;42.732;27.192;2023-03-23T11:13:19;99952.28;;;12.21;100.00
62201;BME280;48197;42.732;27.192;2023-03-23T11:15:47;99955.34;;;12.34;100.00
62201;BME280;48197;42.732;27.192;2023-03-23T11:18:26;99943.03;;;12.73;100.00
62201;BME280;48197;42.732;27.192;2023-03-23T11:20:55;99942.88;;;13.18;100.00
62201;BME280;48197;42.732;27.192;2023-03-23T11:26:08;99932.97;;;13.48;100.00
62201;BME280;48197;42.732;27.192;2023-03-23T11:28:37;99928.09;;;13.83;100.00
62201;BME280;48197;42.732;27.192;2023-03-23T11:31:05;99929.13;;;13.65;100.00
62201;BME280;48197;42.732;27.192;2023-03-23T11:33:41;99932.69;;;13.42;100.00
62201;BME280;48197;42.732;27.192;2023-03-23T11:36:08;99920.59;;;13.53;100.00
62201;BME280;48197;42.732;27.192;2023-03-23T11:38:35;99917.41;;;14.05;100.00
62201;BME280;48197;42.732;27.192;2023-03-23T11:41:08;99920.63;;;14.47;100.00
62201;BME280;48197;42.732;27.192;2023-03-23T11:43:38;99917.31;;;14.32;100.00
62201;BME280;48197;42.732;27.192;2023-03-23T11:46:09;99910.78;;;13.72;100.00
62201;BME280;48197;42.732;27.192;2023-03-23T11:48:38;99913.69;;;13.64;100.00
62201;BME280;48197;42.732;27.192;2023-03-23T11:58:30;99913.56;;;14.19;100.00
62201;BME280;48197;42.732;27.192;2023-03-23T12:01:00;99919.41;;;14.04;100.00
62201;BME280;48197;42.732;27.192;2023-03-23T12:06:15;99916.44;;;13.92;100.00
62201;BME280;48197;42.732;27.192;2023-03-23T12:08:53;99910.75;;;13.48;100.00
62201;BME280;48197;42.732;27.192;2023-03-23T12:14:21;99918.66;;;12.57;100.00
62201;BME280;48197;42.732;27.192;2023-03-23T12:17:37;99915.13;;;12.87;100.00
62201;BME280;48197;42.732;27.192;2023-03-23T12:19:53;99909.91;;;13.24;100.00
62201;BME280;48197;42.732;27.192;2023-03-23T12:38:27;99916.91;;;12.36;100.00
62201;BME280;48197;42.732;27.192;2023-03-23T12:43:52;99909.25;;;12.10;100.00
62201;BME280;48197;42.732;27.192;2023-03-23T12:46:39;99910.81;;;12.14;100.00
62201;BME280;48197;42.732;27.192;2023-03-23T12:51:52;99912.09;;;11.99;100.00
62201;BME280;48197;42.732;27.192;2023-03-23T12:54:24;99907.41;;;11.96;100.00
62201;BME280;48197;42.732;27.192;2023-03-23T12:56:58;99901.09;;;11.95;100.00
62201;BME280;48197;42.732;27.192;2023-03-23T13:01:59;99897.25;;;12.23;100.00
62201;BME280;48197;42.732;27.192;2023-03-23T13:04:32;99897.63;;;12.25;100.00
62201;BME280;48197;42.732;27.192;2023-03-23T13:07:02;99897.25;;;12.23;100.00
62201;BME280;48197;42.732;27.192;2023-03-23T13:12:15;99902.78;;;12.23;100.00
62201;BME280;48197;42.732;27.192;2023-03-23T13:28:02;99889.47;;;10.99;100.00
62201;BME280;48197;42.732;27.192;2023-03-23T13:30:29;99884.38;;;10.91;100.00
62201;BME280;48197;42.732;27.192;2023-03-23T13:33:04;99884.88;;;10.68;100.00
62201;BME280;48197;42.732;27.192;2023-03-23T13:35:34;99890.81;;;10.62;100.00
62201;BME280;48197;42.732;27.192;2023-03-23T13:38:10;99891.94;;;10.72;100.00
62201;BME280;48197;42.732;27.192;2023-03-23T13:40:40;99891.94;;;10.76;100.00
62201;BME280;48197;42.732;27.192;2023-03-23T13:43:08;99889.19;;;10.69;100.00
62201;BME280;48197;42.732;27.192;2023-03-23T13:45:42;99895.53;;;10.66;100.00
62201;BME280;48197;42.732;27.192;2023-03-23T13:53:45;99887.28;;;10.58;100.00
62201;BME280;48197;42.732;27.192;2023-03-23T13:58:46;99897.56;;;10.47;100.00
62201;BME280;48197;42.732;27.192;2023-03-23T14:01:16;99894.44;;;10.41;100.00
62201;BME280;48197;42.732;27.192;2023-03-23T14:03:45;99894.84;;;10.40;100.00
62201;BME280;48197;42.732;27.192;2023-03-23T14:06:17;99889.31;;;10.44;100.00
62201;BME280;48197;42.732;27.192;2023-03-23T14:08:44;99893.22;;;10.53;100.00
62201;BME280;48197;42.732;27.192;2023-03-23T14:11:13;99902.28;;;10.57;100.00
62201;BME280;48197;42.732;27.192;2023-03-23T14:13:42;99890.78;;;10.70;100.00
62201;BME280;48197;42.732;27.192;2023-03-23T14:16:17;99897.09;;;10.70;100.00
62201;BME280;48197;42.732;27.192;2023-03-23T14:18:52;99894.69;;;10.79;100.00
62201;BME280;48197;42.732;27.192;2023-03-23T14:21:26;99896.59;;;10.93;100.00
62201;BME280;48197;42.732;27.192;2023-03-23T14:24:02;99893.00;;;11.00;100.00
62201;BME280;48197;42.732;27.192;2023-03-23T14:26:29;99900.13;;;11.01;100.00
62201;BME280;48197;42.732;27.192;2023-03-23T14:28:59;99897.38;;;10.94;100.00
62201;BME280;48197;42.732;27.192;2023-03-23T14:31:26;99902.19;;;10.79;100.00
62201;BME280;48197;42.732;27.192;2023-03-23T14:33:54;99895.50;;;10.76;100.00
62201;BME280;48197;42.732;27.192;2023-03-23T14:36:27;99904.13;;;10.89;100.00
62201;BME280;48197;42.732;27.192;2023-03-23T14:39:00;99898.53;;;11.03;100.00
62201;BME280;48197;42.732;27.192;2023-03-23T14:41:30;99903.25;;;11.10;100.00
62201;BME280;48197;42.732;27.192;2023-03-23T14:44:00;99905.97;;;11.17;100.00
62201;BME280;48197;42.732;27.192;2023-03-23T14:46:27;99902.78;;;11.22;100.00
62201;BME280;48197;42.732;27.192;2023-03-23T14:48:54;99901.56;;;11.27;100.00
62201;BME280;48197;42.732;27.192;2023-03-23T14:51:20;99905.06;;;11.35;100.00
62201;BME280;48197;42.732;27.192;2023-03-23T14:53:47;99905.06;;;11.35;100.00
62201;BME280;48197;42.732;27.192;2023-03-23T14:56:17;99907.75;;;11.45;100.00
62201;BME280;48197;42.732;27.192;2023-03-23T14:58:48;99904.19;;;11.45;100.00